sensor_id;sensor_type;location;lat;lon;timestamp;P1;durP1;ratioP1;P2;durP2;ratioP2
20880;SDS011;10600;53.096;8.802;2022-12-10T00:00:36;91.03;;;37.88;;
20880;SDS011;10600;53.096;8.802;2022-12-10T00:01:36;84.03;;;36.55;;
20880;SDS011;10600;53.096;8.802;2022-12-10T00:02:37;87.30;;;35.95;;
20880;SDS011;10600;53.096;8.802;2022-12-10T00:03:37;89.63;;;37.17;;
20880;SDS011;10600;53.096;8.802;2022-12-10T00:04:38;84.68;;;37.30;;
20880;SDS011;10600;53.096;8.802;2022-12-10T00:05:39;91.38;;;35.63;;
20880;SDS011;10600;53.096;8.802;2022-12-10T00:06:40;90.80;;;37.33;;
20880;SDS011;10600;53.096;8.802;2022-12-10T00:07:42;90.63;;;36.72;;
20880;SDS011;10600;53.096;8.802;2022-12-10T00:08:42;80.45;;;35.85;;
20880;SDS011;10600;53.096;8.802;2022-12-10T00:09:43;82.85;;;34.08;;
20880;SDS011;10600;53.096;8.802;2022-12-10T00:10:44;83.43;;;35.28;;
20880;SDS011;10600;53.096;8.802;2022-12-10T00:11:44;84.95;;;34.28;;
20880;SDS011;10600;53.096;8.802;2022-12-10T00:12:45;84.18;;;34.38;;
20880;SDS011;10600;53.096;8.802;2022-12-10T00:13:46;88.43;;;36.53;;
20880;SDS011;10600;53.096;8.802;2022-12-10T00:14:47;87.80;;;36.53;;
20880;SDS011;10600;53.096;8.802;2022-12-10T00:15:48;96.88;;;36.70;;
20880;SDS011;10600;53.096;8.802;2022-12-10T00:16:48;82.45;;;35.50;;
20880;SDS011;10600;53.096;8.802;2022-12-10T00:17:49;88.30;;;36.15;;
20880;SDS011;10600;53.096;8.802;2022-12-10T00:18:50;84.38;;;34.50;;
20880;SDS011;10600;53.096;8.802;2022-12-10T00:19:51;87.68;;;36.38;;
20880;SDS011;10600;53.096;8.802;2022-12-10T00:20:52;91.70;;;37.00;;
20880;SDS011;10600;53.096;8.802;2022-12-10T00:21:52;92.63;;;36.25;;
20880;SDS011;10600;53.096;8.802;2022-12-10T00:22:53;78.63;;;33.88;;
20880;SDS011;10600;53.096;8.802;2022-12-10T00:23:54;85.57;;;35.22;;
20880;SDS011;10600;53.096;8.802;2022-12-10T00:24:55;90.10;;;35.95;;
20880;SDS011;10600;53.096;8.802;2022-12-10T00:26:00;87.63;;;35.60;;
20880;SDS011;10600;53.096;8.802;2022-12-10T00:27:03;86.90;;;34.70;;
20880;SDS011;10600;53.096;8.802;2022-12-10T00:28:03;94.68;;;35.92;;
20880;SDS011;10600;53.096;8.802;2022-12-10T00:29:04;85.15;;;35.83;;
20880;SDS011;10600;53.096;8.802;2022-12-10T00:30:06;81.50;;;35.67;;
20880;SDS011;10600;53.096;8.802;2022-12-10T00:31:11;90.75;;;35.80;;
20880;SDS011;10600;53.096;8.802;2022-12-10T00:32:14;94.90;;;36.35;;
20880;SDS011;10600;53.096;8.802;2022-12-10T00:33:15;86.68;;;36.67;;
20880;SDS011;10600;53.096;8.802;2022-12-10T00:34:15;84.25;;;34.28;;
20880;SDS011;10600;53.096;8.802;2022-12-10T00:35:17;84.93;;;35.85;;
20880;SDS011;10600;53.096;8.802;2022-12-10T00:36:24;90.80;;;36.78;;
20880;SDS011;10600;53.096;8.802;2022-12-10T00:37:26;87.10;;;35.42;;
20880;SDS011;10600;53.096;8.802;2022-12-10T00:38:27;93.40;;;37.28;;
20880;SDS011;10600;53.096;8.802;2022-12-10T00:39:28;85.47;;;34.60;;
20880;SDS011;10600;53.096;8.802;2022-12-10T00:40:29;85.35;;;35.20;;
20880;SDS011;10600;53.096;8.802;2022-12-10T00:41:30;89.75;;;35.92;;
20880;SDS011;10600;53.096;8.802;2022-12-10T00:42:31;94.47;;;38.10;;
20880;SDS011;10600;53.096;8.802;2022-12-10T00:43:32;81.10;;;32.90;;
20880;SDS011;10600;53.096;8.802;2022-12-10T00:44:33;90.72;;;36.60;;
20880;SDS011;10600;53.096;8.802;2022-12-10T00:45:33;89.78;;;36.20;;
20880;SDS011;10600;53.096;8.802;2022-12-10T00:46:34;83.00;;;35.05;;
20880;SDS011;10600;53.096;8.802;2022-12-10T00:47:35;88.18;;;36.38;;
20880;SDS011;10600;53.096;8.802;2022-12-10T00:48:36;82.00;;;35.03;;
20880;SDS011;10600;53.096;8.802;2022-12-10T00:49:37;85.82;;;33.95;;
20880;SDS011;10600;53.096;8.802;2022-12-10T00:50:37;86.70;;;35.78;;
20880;SDS011;10600;53.096;8.802;2022-12-10T00:51:38;84.63;;;36.55;;
20880;SDS011;10600;53.096;8.802;2022-12-10T00:52:38;80.00;;;34.08;;
20880;SDS011;10600;53.096;8.802;2022-12-10T00:53:40;83.85;;;35.38;;
20880;SDS011;10600;53.096;8.802;2022-12-10T00:54:42;85.43;;;36.67;;
20880;SDS011;10600;53.096;8.802;2022-12-10T00:55:42;82.95;;;34.33;;
20880;SDS011;10600;53.096;8.802;2022-12-10T00:56:43;81.38;;;33.65;;
20880;SDS011;10600;53.096;8.802;2022-12-10T00:57:43;86.55;;;36.42;;
20880;SDS011;10600;53.096;8.802;2022-12-10T00:58:44;88.55;;;35.35;;
20880;SDS011;10600;53.096;8.802;2022-12-10T00:59:46;82.20;;;34.58;;
20880;SDS011;10600;53.096;8.802;2022-12-10T01:00:47;83.30;;;35.30;;
20880;SDS011;10600;53.096;8.802;2022-12-10T01:01:48;86.13;;;34.97;;
20880;SDS011;10600;53.096;8.802;2022-12-10T01:02:49;84.60;;;35.60;;
20880;SDS011;10600;53.096;8.802;2022-12-10T01:03:51;79.03;;;33.80;;
20880;SDS011;10600;53.096;8.802;2022-12-10T01:04:53;79.82;;;34.25;;
20880;SDS011;10600;53.096;8.802;2022-12-10T01:05:54;80.10;;;34.10;;
20880;SDS011;10600;53.096;8.802;2022-12-10T01:06:54;85.05;;;35.92;;
20880;SDS011;10600;53.096;8.802;2022-12-10T01:07:55;80.80;;;34.65;;
20880;SDS011;10600;53.096;8.802;2022-12-10T01:08:57;87.93;;;36.03;;
20880;SDS011;10600;53.096;8.802;2022-12-10T01:09:59;87.50;;;36.60;;
20880;SDS011;10600;53.096;8.802;2022-12-10T01:10:59;79.47;;;33.42;;
20880;SDS011;10600;53.096;8.802;2022-12-10T01:12:01;86.07;;;35.97;;
20880;SDS011;10600;53.096;8.802;2022-12-10T01:13:03;86.38;;;35.15;;
20880;SDS011;10600;53.096;8.802;2022-12-10T01:14:04;86.88;;;36.28;;
20880;SDS011;10600;53.096;8.802;2022-12-10T01:15:09;85.80;;;35.15;;
20880;SDS011;10600;53.096;8.802;2022-12-10T01:16:10;86.00;;;35.70;;
20880;SDS011;10600;53.096;8.802;2022-12-10T01:17:12;84.80;;;35.22;;
20880;SDS011;10600;53.096;8.802;2022-12-10T01:18:13;82.78;;;35.33;;
20880;SDS011;10600;53.096;8.802;2022-12-10T01:19:13;88.18;;;35.13;;
20880;SDS011;10600;53.096;8.802;2022-12-10T01:20:14;84.32;;;33.63;;
20880;SDS011;10600;53.096;8.802;2022-12-10T01:21:16;85.43;;;35.47;;
20880;SDS011;10600;53.096;8.802;2022-12-10T01:22:18;81.10;;;33.08;;
20880;SDS011;10600;53.096;8.802;2022-12-10T01:23:18;75.68;;;33.20;;
20880;SDS011;10600;53.096;8.802;2022-12-10T01:24:19;84.68;;;36.10;;
20880;SDS011;10600;53.096;8.802;2022-12-10T01:25:21;77.60;;;33.45;;
20880;SDS011;10600;53.096;8.802;2022-12-10T01:26:22;86.30;;;36.85;;
20880;SDS011;10600;53.096;8.802;2022-12-10T01:27:25;80.47;;;33.90;;
20880;SDS011;10600;53.096;8.802;2022-12-10T01:28:27;85.35;;;36.00;;
20880;SDS011;10600;53.096;8.802;2022-12-10T01:29:29;79.40;;;35.55;;
20880;SDS011;10600;53.096;8.802;2022-12-10T01:30:30;80.93;;;35.53;;
20880;SDS011;10600;53.096;8.802;2022-12-10T01:31:33;86.05;;;35.70;;
20880;SDS011;10600;53.096;8.802;2022-12-10T01:32:36;84.00;;;34.75;;
20880;SDS011;10600;53.096;8.802;2022-12-10T01:33:37;81.00;;;35.83;;
20880;SDS011;10600;53.096;8.802;2022-12-10T01:34:38;74.90;;;34.60;;
20880;SDS011;10600;53.096;8.802;2022-12-10T01:35:38;79.85;;;35.08;;
20880;SDS011;10600;53.096;8.802;2022-12-10T01:36:40;78.47;;;34.08;;
20880;SDS011;10600;53.096;8.802;2022-12-10T01:37:42;80.93;;;34.75;;
20880;SDS011;10600;53.096;8.802;2022-12-10T01:38:43;79.93;;;34.67;;
20880;SDS011;10600;53.096;8.802;2022-12-10T01:39:44;81.60;;;35.08;;
20880;SDS011;10600;53.096;8.802;2022-12-10T01:40:45;76.72;;;35.22;;
20880;SDS011;10600;53.096;8.802;2022-12-10T01:41:47;82.15;;;34.45;;
20880;SDS011;10600;53.096;8.802;2022-12-10T01:42:49;76.00;;;33.88;;
20880;SDS011;10600;53.096;8.802;2022-12-10T01:43:52;83.03;;;36.85;;
20880;SDS011;10600;53.096;8.802;2022-12-10T01:44:57;77.90;;;33.83;;
20880;SDS011;10600;53.096;8.802;2022-12-10T01:46:00;80.97;;;36.25;;
20880;SDS011;10600;53.096;8.802;2022-12-10T01:47:01;73.80;;;33.70;;
20880;SDS011;10600;53.096;8.802;2022-12-10T01:48:02;77.47;;;33.58;;
20880;SDS011;10600;53.096;8.802;2022-12-10T01:49:07;80.93;;;33.92;;
20880;SDS011;10600;53.096;8.802;2022-12-10T01:50:15;81.38;;;33.35;;
20880;SDS011;10600;53.096;8.802;2022-12-10T01:51:17;80.28;;;33.75;;
20880;SDS011;10600;53.096;8.802;2022-12-10T01:52:17;82.13;;;34.10;;
20880;SDS011;10600;53.096;8.802;2022-12-10T01:53:18;81.47;;;33.63;;
20880;SDS011;10600;53.096;8.802;2022-12-10T01:54:25;75.53;;;33.65;;
20880;SDS011;10600;53.096;8.802;2022-12-10T01:55:44;81.57;;;34.35;;
20880;SDS011;10600;53.096;8.802;2022-12-10T01:56:50;80.13;;;35.58;;
20880;SDS011;10600;53.096;8.802;2022-12-10T01:57:57;77.18;;;32.88;;
20880;SDS011;10600;53.096;8.802;2022-12-10T01:58:58;78.20;;;35.50;;
20880;SDS011;10600;53.096;8.802;2022-12-10T02:00:00;80.40;;;35.50;;
20880;SDS011;10600;53.096;8.802;2022-12-10T02:06:06;81.90;;;33.53;;
20880;SDS011;10600;53.096;8.802;2022-12-10T02:07:34;80.22;;;32.80;;
20880;SDS011;10600;53.096;8.802;2022-12-10T02:08:49;80.90;;;32.13;;
20880;SDS011;10600;53.096;8.802;2022-12-10T02:10:13;68.80;;;31.23;;
20880;SDS011;10600;53.096;8.802;2022-12-10T02:11:28;78.03;;;32.38;;
20880;SDS011;10600;53.096;8.802;2022-12-10T02:12:34;79.65;;;33.13;;
20880;SDS011;10600;53.096;8.802;2022-12-10T02:13:41;70.28;;;30.73;;
20880;SDS011;10600;53.096;8.802;2022-12-10T02:15:51;72.53;;;31.08;;
20880;SDS011;10600;53.096;8.802;2022-12-10T02:16:59;72.97;;;32.45;;
20880;SDS011;10600;53.096;8.802;2022-12-10T02:18:10;76.35;;;33.88;;
20880;SDS011;10600;53.096;8.802;2022-12-10T02:19:21;75.07;;;33.05;;
20880;SDS011;10600;53.096;8.802;2022-12-10T02:20:42;79.63;;;32.08;;
20880;SDS011;10600;53.096;8.802;2022-12-10T02:21:47;72.28;;;32.15;;
20880;SDS011;10600;53.096;8.802;2022-12-10T02:22:52;74.50;;;32.65;;
20880;SDS011;10600;53.096;8.802;2022-12-10T02:23:59;70.93;;;33.60;;
20880;SDS011;10600;53.096;8.802;2022-12-10T02:25:03;75.63;;;31.60;;
20880;SDS011;10600;53.096;8.802;2022-12-10T02:27:35;76.38;;;32.75;;
20880;SDS011;10600;53.096;8.802;2022-12-10T02:30:11;76.28;;;31.27;;
20880;SDS011;10600;53.096;8.802;2022-12-10T02:31:13;68.60;;;30.13;;
20880;SDS011;10600;53.096;8.802;2022-12-10T02:32:18;68.15;;;30.08;;
20880;SDS011;10600;53.096;8.802;2022-12-10T02:33:22;74.78;;;32.45;;
20880;SDS011;10600;53.096;8.802;2022-12-10T02:34:25;67.28;;;31.30;;
20880;SDS011;10600;53.096;8.802;2022-12-10T02:35:31;62.70;;;28.48;;
20880;SDS011;10600;53.096;8.802;2022-12-10T02:36:35;58.40;;;29.40;;
20880;SDS011;10600;53.096;8.802;2022-12-10T02:37:39;62.63;;;28.38;;
20880;SDS011;10600;53.096;8.802;2022-12-10T02:38:47;65.22;;;28.58;;
20880;SDS011;10600;53.096;8.802;2022-12-10T02:39:51;67.82;;;28.67;;
20880;SDS011;10600;53.096;8.802;2022-12-10T02:40:57;66.45;;;29.67;;
20880;SDS011;10600;53.096;8.802;2022-12-10T02:42:02;67.07;;;30.27;;
20880;SDS011;10600;53.096;8.802;2022-12-10T02:43:04;62.50;;;28.00;;
20880;SDS011;10600;53.096;8.802;2022-12-10T02:44:09;65.10;;;29.48;;
20880;SDS011;10600;53.096;8.802;2022-12-10T02:45:12;62.67;;;29.50;;
20880;SDS011;10600;53.096;8.802;2022-12-10T02:46:13;70.22;;;30.48;;
20880;SDS011;10600;53.096;8.802;2022-12-10T02:47:15;64.78;;;31.55;;
20880;SDS011;10600;53.096;8.802;2022-12-10T02:48:18;68.40;;;29.95;;
20880;SDS011;10600;53.096;8.802;2022-12-10T02:49:19;66.10;;;28.30;;
20880;SDS011;10600;53.096;8.802;2022-12-10T02:50:22;63.10;;;30.10;;
20880;SDS011;10600;53.096;8.802;2022-12-10T02:51:23;69.40;;;32.33;;
20880;SDS011;10600;53.096;8.802;2022-12-10T02:52:24;58.65;;;28.55;;
20880;SDS011;10600;53.096;8.802;2022-12-10T02:53:25;65.40;;;29.77;;
20880;SDS011;10600;53.096;8.802;2022-12-10T02:54:36;64.82;;;29.50;;
20880;SDS011;10600;53.096;8.802;2022-12-10T02:55:54;67.07;;;30.52;;
20880;SDS011;10600;53.096;8.802;2022-12-10T02:58:33;68.97;;;30.88;;
20880;SDS011;10600;53.096;8.802;2022-12-10T02:59:47;67.82;;;30.33;;
20880;SDS011;10600;53.096;8.802;2022-12-10T03:01:03;68.63;;;30.25;;
20880;SDS011;10600;53.096;8.802;2022-12-10T03:02:19;62.42;;;29.80;;
20880;SDS011;10600;53.096;8.802;2022-12-10T03:03:38;68.35;;;30.40;;
20880;SDS011;10600;53.096;8.802;2022-12-10T03:04:46;67.88;;;31.42;;
20880;SDS011;10600;53.096;8.802;2022-12-10T03:06:03;67.95;;;30.88;;
20880;SDS011;10600;53.096;8.802;2022-12-10T03:07:24;70.15;;;31.33;;
20880;SDS011;10600;53.096;8.802;2022-12-10T03:08:46;67.03;;;30.50;;
20880;SDS011;10600;53.096;8.802;2022-12-10T03:10:09;66.53;;;29.27;;
20880;SDS011;10600;53.096;8.802;2022-12-10T03:11:16;68.30;;;32.45;;
20880;SDS011;10600;53.096;8.802;2022-12-10T03:12:28;61.47;;;29.38;;
20880;SDS011;10600;53.096;8.802;2022-12-10T03:13:35;64.50;;;29.73;;
20880;SDS011;10600;53.096;8.802;2022-12-10T03:14:38;63.03;;;30.35;;
20880;SDS011;10600;53.096;8.802;2022-12-10T03:15:40;63.03;;;28.23;;
20880;SDS011;10600;53.096;8.802;2022-12-10T03:16:44;66.90;;;31.83;;
20880;SDS011;10600;53.096;8.802;2022-12-10T03:17:50;69.30;;;30.88;;
20880;SDS011;10600;53.096;8.802;2022-12-10T03:18:52;68.72;;;31.38;;
20880;SDS011;10600;53.096;8.802;2022-12-10T03:19:57;64.88;;;29.13;;
20880;SDS011;10600;53.096;8.802;2022-12-10T03:21:01;62.35;;;29.75;;
20880;SDS011;10600;53.096;8.802;2022-12-10T03:22:04;62.50;;;28.35;;
20880;SDS011;10600;53.096;8.802;2022-12-10T03:23:07;63.58;;;31.10;;
20880;SDS011;10600;53.096;8.802;2022-12-10T03:24:11;62.85;;;29.45;;
20880;SDS011;10600;53.096;8.802;2022-12-10T03:25:13;64.28;;;29.40;;
20880;SDS011;10600;53.096;8.802;2022-12-10T03:26:19;57.58;;;28.52;;
20880;SDS011;10600;53.096;8.802;2022-12-10T03:27:23;55.50;;;27.23;;
20880;SDS011;10600;53.096;8.802;2022-12-10T03:28:24;60.92;;;29.50;;
20880;SDS011;10600;53.096;8.802;2022-12-10T03:29:27;61.60;;;27.77;;
20880;SDS011;10600;53.096;8.802;2022-12-10T03:30:32;55.40;;;26.08;;
20880;SDS011;10600;53.096;8.802;2022-12-10T03:31:35;50.15;;;23.75;;
20880;SDS011;10600;53.096;8.802;2022-12-10T03:32:38;50.92;;;24.60;;
20880;SDS011;10600;53.096;8.802;2022-12-10T03:33:38;47.22;;;23.15;;
20880;SDS011;10600;53.096;8.802;2022-12-10T03:34:40;45.95;;;23.48;;
20880;SDS011;10600;53.096;8.802;2022-12-10T03:35:42;48.17;;;23.80;;
20880;SDS011;10600;53.096;8.802;2022-12-10T03:36:43;50.58;;;24.70;;
20880;SDS011;10600;53.096;8.802;2022-12-10T03:37:44;50.25;;;25.67;;
20880;SDS011;10600;53.096;8.802;2022-12-10T03:38:46;58.08;;;25.88;;
20880;SDS011;10600;53.096;8.802;2022-12-10T03:39:47;54.88;;;26.25;;
20880;SDS011;10600;53.096;8.802;2022-12-10T03:40:47;52.45;;;25.83;;
20880;SDS011;10600;53.096;8.802;2022-12-10T03:41:48;51.63;;;25.58;;
20880;SDS011;10600;53.096;8.802;2022-12-10T03:42:49;54.50;;;26.10;;
20880;SDS011;10600;53.096;8.802;2022-12-10T03:43:50;58.25;;;27.65;;
20880;SDS011;10600;53.096;8.802;2022-12-10T03:44:55;57.53;;;26.55;;
20880;SDS011;10600;53.096;8.802;2022-12-10T03:45:56;56.38;;;28.08;;
20880;SDS011;10600;53.096;8.802;2022-12-10T03:46:57;53.30;;;27.52;;
20880;SDS011;10600;53.096;8.802;2022-12-10T03:47:58;57.97;;;27.90;;
20880;SDS011;10600;53.096;8.802;2022-12-10T03:48:59;42.10;;;22.45;;
20880;SDS011;10600;53.096;8.802;2022-12-10T03:50:00;43.55;;;21.08;;
20880;SDS011;10600;53.096;8.802;2022-12-10T03:51:01;40.78;;;21.40;;
20880;SDS011;10600;53.096;8.802;2022-12-10T03:52:02;45.58;;;22.75;;
20880;SDS011;10600;53.096;8.802;2022-12-10T03:53:02;46.55;;;22.92;;
20880;SDS011;10600;53.096;8.802;2022-12-10T03:54:03;47.70;;;23.90;;
20880;SDS011;10600;53.096;8.802;2022-12-10T03:55:04;50.15;;;24.67;;
20880;SDS011;10600;53.096;8.802;2022-12-10T03:56:06;50.20;;;24.90;;
20880;SDS011;10600;53.096;8.802;2022-12-10T03:57:07;52.88;;;24.90;;
20880;SDS011;10600;53.096;8.802;2022-12-10T03:58:07;53.72;;;26.55;;
20880;SDS011;10600;53.096;8.802;2022-12-10T03:59:08;53.67;;;26.58;;
20880;SDS011;10600;53.096;8.802;2022-12-10T04:00:09;56.83;;;27.13;;
20880;SDS011;10600;53.096;8.802;2022-12-10T04:01:10;55.50;;;27.35;;
20880;SDS011;10600;53.096;8.802;2022-12-10T04:02:11;56.40;;;28.38;;
20880;SDS011;10600;53.096;8.802;2022-12-10T04:03:12;58.67;;;28.00;;
20880;SDS011;10600;53.096;8.802;2022-12-10T04:04:12;60.63;;;29.55;;
20880;SDS011;10600;53.096;8.802;2022-12-10T04:05:13;57.88;;;29.30;;
20880;SDS011;10600;53.096;8.802;2022-12-10T04:06:15;60.53;;;27.65;;
20880;SDS011;10600;53.096;8.802;2022-12-10T04:07:17;56.85;;;27.75;;
20880;SDS011;10600;53.096;8.802;2022-12-10T04:08:18;59.08;;;29.05;;
20880;SDS011;10600;53.096;8.802;2022-12-10T04:09:19;58.25;;;27.52;;
20880;SDS011;10600;53.096;8.802;2022-12-10T04:10:19;63.80;;;29.40;;
20880;SDS011;10600;53.096;8.802;2022-12-10T04:11:20;53.97;;;27.38;;
20880;SDS011;10600;53.096;8.802;2022-12-10T04:12:21;59.13;;;28.25;;
20880;SDS011;10600;53.096;8.802;2022-12-10T04:13:21;59.42;;;29.88;;
20880;SDS011;10600;53.096;8.802;2022-12-10T04:14:41;58.72;;;29.80;;
20880;SDS011;10600;53.096;8.802;2022-12-10T04:16:00;55.30;;;28.08;;
20880;SDS011;10600;53.096;8.802;2022-12-10T04:17:19;57.47;;;26.25;;
20880;SDS011;10600;53.096;8.802;2022-12-10T04:18:20;57.63;;;27.30;;
20880;SDS011;10600;53.096;8.802;2022-12-10T04:19:21;57.25;;;28.50;;
20880;SDS011;10600;53.096;8.802;2022-12-10T04:20:22;52.90;;;26.02;;
20880;SDS011;10600;53.096;8.802;2022-12-10T04:21:42;48.42;;;24.88;;
20880;SDS011;10600;53.096;8.802;2022-12-10T04:23:02;44.97;;;23.73;;
20880;SDS011;10600;53.096;8.802;2022-12-10T04:24:22;48.72;;;24.17;;
20880;SDS011;10600;53.096;8.802;2022-12-10T04:25:43;48.47;;;24.17;;
20880;SDS011;10600;53.096;8.802;2022-12-10T04:27:05;54.58;;;26.20;;
20880;SDS011;10600;53.096;8.802;2022-12-10T04:28:26;58.28;;;27.98;;
20880;SDS011;10600;53.096;8.802;2022-12-10T04:29:27;55.13;;;27.75;;
20880;SDS011;10600;53.096;8.802;2022-12-10T04:30:30;54.92;;;26.98;;
20880;SDS011;10600;53.096;8.802;2022-12-10T04:31:30;57.17;;;28.30;;
20880;SDS011;10600;53.096;8.802;2022-12-10T04:32:31;57.65;;;29.02;;
20880;SDS011;10600;53.096;8.802;2022-12-10T04:33:32;56.83;;;28.20;;
20880;SDS011;10600;53.096;8.802;2022-12-10T04:34:32;60.90;;;28.58;;
20880;SDS011;10600;53.096;8.802;2022-12-10T04:35:33;58.38;;;28.45;;
20880;SDS011;10600;53.096;8.802;2022-12-10T04:36:33;60.67;;;29.80;;
20880;SDS011;10600;53.096;8.802;2022-12-10T04:37:34;56.95;;;28.00;;
20880;SDS011;10600;53.096;8.802;2022-12-10T04:38:35;57.53;;;28.42;;
20880;SDS011;10600;53.096;8.802;2022-12-10T04:39:36;62.85;;;28.70;;
20880;SDS011;10600;53.096;8.802;2022-12-10T04:40:37;59.03;;;27.25;;
20880;SDS011;10600;53.096;8.802;2022-12-10T04:41:41;60.47;;;28.88;;
20880;SDS011;10600;53.096;8.802;2022-12-10T04:42:43;57.08;;;27.88;;
20880;SDS011;10600;53.096;8.802;2022-12-10T04:43:44;60.10;;;29.30;;
20880;SDS011;10600;53.096;8.802;2022-12-10T04:44:44;54.05;;;27.00;;
20880;SDS011;10600;53.096;8.802;2022-12-10T04:45:45;56.40;;;29.52;;
20880;SDS011;10600;53.096;8.802;2022-12-10T04:46:46;52.83;;;27.70;;
20880;SDS011;10600;53.096;8.802;2022-12-10T04:47:47;54.00;;;25.25;;
20880;SDS011;10600;53.096;8.802;2022-12-10T04:48:47;33.20;;;17.55;;
20880;SDS011;10600;53.096;8.802;2022-12-10T04:49:48;35.67;;;19.65;;
20880;SDS011;10600;53.096;8.802;2022-12-10T04:50:49;36.22;;;18.30;;
20880;SDS011;10600;53.096;8.802;2022-12-10T04:51:49;31.52;;;16.25;;
20880;SDS011;10600;53.096;8.802;2022-12-10T04:52:50;31.35;;;17.98;;
20880;SDS011;10600;53.096;8.802;2022-12-10T04:53:51;30.05;;;15.75;;
20880;SDS011;10600;53.096;8.802;2022-12-10T04:54:52;25.33;;;14.02;;
20880;SDS011;10600;53.096;8.802;2022-12-10T04:55:52;23.83;;;13.88;;
20880;SDS011;10600;53.096;8.802;2022-12-10T04:56:53;24.50;;;13.85;;
20880;SDS011;10600;53.096;8.802;2022-12-10T04:57:54;23.85;;;13.55;;
20880;SDS011;10600;53.096;8.802;2022-12-10T04:58:55;25.83;;;14.35;;
20880;SDS011;10600;53.096;8.802;2022-12-10T04:59:56;28.10;;;15.07;;
20880;SDS011;10600;53.096;8.802;2022-12-10T05:01:03;30.73;;;17.25;;
20880;SDS011;10600;53.096;8.802;2022-12-10T05:02:06;29.60;;;17.13;;
20880;SDS011;10600;53.096;8.802;2022-12-10T05:03:06;30.77;;;16.67;;
20880;SDS011;10600;53.096;8.802;2022-12-10T05:04:08;29.15;;;15.07;;
20880;SDS011;10600;53.096;8.802;2022-12-10T05:05:11;21.73;;;12.02;;
20880;SDS011;10600;53.096;8.802;2022-12-10T05:06:13;26.95;;;14.30;;
20880;SDS011;10600;53.096;8.802;2022-12-10T05:07:15;27.45;;;15.50;;
20880;SDS011;10600;53.096;8.802;2022-12-10T05:08:15;24.80;;;15.23;;
20880;SDS011;10600;53.096;8.802;2022-12-10T05:09:16;26.35;;;15.48;;
20880;SDS011;10600;53.096;8.802;2022-12-10T05:10:17;28.25;;;16.25;;
20880;SDS011;10600;53.096;8.802;2022-12-10T05:11:19;29.63;;;17.63;;
20880;SDS011;10600;53.096;8.802;2022-12-10T05:12:20;29.25;;;16.98;;
20880;SDS011;10600;53.096;8.802;2022-12-10T05:13:21;33.40;;;18.20;;
20880;SDS011;10600;53.096;8.802;2022-12-10T05:14:21;30.73;;;17.08;;
20880;SDS011;10600;53.096;8.802;2022-12-10T05:15:22;31.38;;;18.50;;
20880;SDS011;10600;53.096;8.802;2022-12-10T05:16:24;30.83;;;18.20;;
20880;SDS011;10600;53.096;8.802;2022-12-10T05:17:26;32.97;;;18.65;;
20880;SDS011;10600;53.096;8.802;2022-12-10T05:18:27;33.90;;;19.13;;
20880;SDS011;10600;53.096;8.802;2022-12-10T05:19:27;37.45;;;19.48;;
20880;SDS011;10600;53.096;8.802;2022-12-10T05:20:28;34.08;;;17.30;;
20880;SDS011;10600;53.096;8.802;2022-12-10T05:21:29;34.13;;;18.40;;
20880;SDS011;10600;53.096;8.802;2022-12-10T05:22:49;31.90;;;17.83;;
20880;SDS011;10600;53.096;8.802;2022-12-10T05:24:08;33.08;;;17.92;;
20880;SDS011;10600;53.096;8.802;2022-12-10T05:25:08;31.35;;;17.38;;
20880;SDS011;10600;53.096;8.802;2022-12-10T05:26:16;33.72;;;18.40;;
20880;SDS011;10600;53.096;8.802;2022-12-10T05:27:17;27.95;;;15.18;;
20880;SDS011;10600;53.096;8.802;2022-12-10T05:28:19;25.05;;;14.15;;
20880;SDS011;10600;53.096;8.802;2022-12-10T05:29:23;23.50;;;13.43;;
20880;SDS011;10600;53.096;8.802;2022-12-10T05:30:23;23.58;;;13.35;;
20880;SDS011;10600;53.096;8.802;2022-12-10T05:31:25;29.77;;;14.48;;
20880;SDS011;10600;53.096;8.802;2022-12-10T05:32:27;27.38;;;15.50;;
20880;SDS011;10600;53.096;8.802;2022-12-10T05:33:28;28.15;;;16.05;;
20880;SDS011;10600;53.096;8.802;2022-12-10T05:34:28;30.55;;;15.77;;
20880;SDS011;10600;53.096;8.802;2022-12-10T05:35:29;29.20;;;14.93;;
20880;SDS011;10600;53.096;8.802;2022-12-10T05:36:30;30.13;;;16.73;;
20880;SDS011;10600;53.096;8.802;2022-12-10T05:37:31;30.23;;;16.45;;
20880;SDS011;10600;53.096;8.802;2022-12-10T05:38:32;31.08;;;16.77;;
20880;SDS011;10600;53.096;8.802;2022-12-10T05:39:33;29.80;;;16.73;;
20880;SDS011;10600;53.096;8.802;2022-12-10T05:40:34;29.83;;;16.83;;
20880;SDS011;10600;53.096;8.802;2022-12-10T05:41:37;24.00;;;14.32;;
20880;SDS011;10600;53.096;8.802;2022-12-10T05:42:38;24.20;;;14.60;;
20880;SDS011;10600;53.096;8.802;2022-12-10T05:43:39;25.85;;;14.40;;
20880;SDS011;10600;53.096;8.802;2022-12-10T05:44:40;31.05;;;15.43;;
20880;SDS011;10600;53.096;8.802;2022-12-10T05:45:41;27.63;;;15.63;;
20880;SDS011;10600;53.096;8.802;2022-12-10T05:46:42;28.75;;;16.08;;
20880;SDS011;10600;53.096;8.802;2022-12-10T05:47:42;31.60;;;16.95;;
20880;SDS011;10600;53.096;8.802;2022-12-10T05:48:43;31.92;;;17.40;;
20880;SDS011;10600;53.096;8.802;2022-12-10T05:49:44;30.60;;;17.38;;
20880;SDS011;10600;53.096;8.802;2022-12-10T05:50:44;29.98;;;17.77;;
20880;SDS011;10600;53.096;8.802;2022-12-10T05:51:45;31.92;;;16.83;;
20880;SDS011;10600;53.096;8.802;2022-12-10T05:52:46;26.60;;;15.20;;
20880;SDS011;10600;53.096;8.802;2022-12-10T05:53:47;24.77;;;13.15;;
20880;SDS011;10600;53.096;8.802;2022-12-10T05:54:47;24.25;;;13.57;;
20880;SDS011;10600;53.096;8.802;2022-12-10T05:55:48;27.00;;;15.45;;
20880;SDS011;10600;53.096;8.802;2022-12-10T05:56:49;23.52;;;13.80;;
20880;SDS011;10600;53.096;8.802;2022-12-10T05:57:49;27.55;;;15.00;;
20880;SDS011;10600;53.096;8.802;2022-12-10T05:58:51;25.27;;;14.93;;
20880;SDS011;10600;53.096;8.802;2022-12-10T05:59:54;26.80;;;14.88;;
20880;SDS011;10600;53.096;8.802;2022-12-10T06:00:55;30.35;;;16.25;;
20880;SDS011;10600;53.096;8.802;2022-12-10T06:01:57;34.50;;;18.67;;
20880;SDS011;10600;53.096;8.802;2022-12-10T06:02:57;29.95;;;17.58;;
20880;SDS011;10600;53.096;8.802;2022-12-10T06:03:59;30.73;;;16.33;;
20880;SDS011;10600;53.096;8.802;2022-12-10T06:05:00;34.53;;;18.33;;
20880;SDS011;10600;53.096;8.802;2022-12-10T06:06:01;28.98;;;16.10;;
20880;SDS011;10600;53.096;8.802;2022-12-10T06:07:02;27.10;;;14.18;;
20880;SDS011;10600;53.096;8.802;2022-12-10T06:08:03;23.60;;;14.52;;
20880;SDS011;10600;53.096;8.802;2022-12-10T06:09:05;28.02;;;16.88;;
20880;SDS011;10600;53.096;8.802;2022-12-10T06:10:06;30.95;;;16.65;;
20880;SDS011;10600;53.096;8.802;2022-12-10T06:11:09;30.00;;;17.50;;
20880;SDS011;10600;53.096;8.802;2022-12-10T06:12:10;32.40;;;18.13;;
20880;SDS011;10600;53.096;8.802;2022-12-10T06:13:11;29.55;;;17.70;;
20880;SDS011;10600;53.096;8.802;2022-12-10T06:14:11;31.75;;;17.85;;
20880;SDS011;10600;53.096;8.802;2022-12-10T06:15:12;31.88;;;18.15;;
20880;SDS011;10600;53.096;8.802;2022-12-10T06:16:13;38.13;;;19.67;;
20880;SDS011;10600;53.096;8.802;2022-12-10T06:17:14;34.30;;;19.95;;
20880;SDS011;10600;53.096;8.802;2022-12-10T06:18:15;35.80;;;18.60;;
20880;SDS011;10600;53.096;8.802;2022-12-10T06:19:15;32.38;;;18.85;;
20880;SDS011;10600;53.096;8.802;2022-12-10T06:20:16;27.92;;;16.27;;